sensor_id;sensor_type;location;lat;lon;timestamp;pressure;altitude;pressure_sealevel;temperature;humidity
35806;BME280;21925;44.608;11.580;2022-10-13T00:00:38;102266.00;;;16.58;100.00
35806;BME280;21925;44.608;11.580;2022-10-13T00:03:04;102273.38;;;16.66;100.00
35806;BME280;21925;44.608;11.580;2022-10-13T00:05:30;102266.38;;;16.44;100.00
35806;BME280;21925;44.608;11.580;2022-10-13T00:07:56;102264.53;;;16.48;100.00
35806;BME280;21925;44.608;11.580;2022-10-13T00:10:22;102263.31;;;16.10;100.00
35806;BME280;21925;44.608;11.580;2022-10-13T00:12:49;102258.00;;;16.17;100.00
35806;BME280;21925;44.608;11.580;2022-10-13T00:15:14;102281.31;;;16.04;100.00
35806;BME280;21925;44.608;11.580;2022-10-13T00:17:40;102281.75;;;15.94;100.00
35806;BME280;21925;44.608;11.580;2022-10-13T00:20:07;102295.81;;;16.13;100.00
35806;BME280;21925;44.608;11.580;2022-10-13T00:22:33;102280.38;;;16.36;100.00
35806;BME280;21925;44.608;11.580;2022-10-13T00:24:59;102267.22;;;16.33;100.00
35806;BME280;21925;44.608;11.580;2022-10-13T00:27:24;102274.72;;;16.32;100.00
35806;BME280;21925;44.608;11.580;2022-10-13T00:29:50;102263.66;;;16.32;100.00
35806;BME280;21925;44.608;11.580;2022-10-13T00:32:16;102260.53;;;16.22;100.00
35806;BME280;21925;44.608;11.580;2022-10-13T00:34:42;102276.44;;;16.25;100.00
35806;BME280;21925;44.608;11.580;2022-10-13T00:37:08;102271.13;;;16.32;100.00
35806;BME280;21925;44.608;11.580;2022-10-13T00:39:33;102234.94;;;16.13;100.00
35806;BME280;21925;44.608;11.580;2022-10-13T00:42:00;102265.16;;;16.30;100.00
35806;BME280;21925;44.608;11.580;2022-10-13T00:47:17;102261.00;;;16.36;100.00
35806;BME280;21925;44.608;11.580;2022-10-13T00:49:43;102256.88;;;16.30;100.00
35806;BME280;21925;44.608;11.580;2022-10-13T00:52:10;102266.97;;;16.26;100.00
35806;BME280;21925;44.608;11.580;2022-10-13T00:54:36;102254.66;;;16.11;100.00
35806;BME280;21925;44.608;11.580;2022-10-13T00:57:02;102246.81;;;16.13;100.00
35806;BME280;21925;44.608;11.580;2022-10-13T00:59:28;102252.72;;;16.12;100.00
35806;BME280;21925;44.608;11.580;2022-10-13T01:01:56;102272.41;;;16.22;100.00
35806;BME280;21925;44.608;11.580;2022-10-13T01:04:26;102245.59;;;15.99;100.00
35806;BME280;21925;44.608;11.580;2022-10-13T01:06:54;102238.66;;;15.81;100.00
35806;BME280;21925;44.608;11.580;2022-10-13T01:09:20;102245.94;;;15.86;100.00
35806;BME280;21925;44.608;11.580;2022-10-13T01:12:11;102263.31;;;15.86;100.00
35806;BME280;21925;44.608;11.580;2022-10-13T01:14:51;102258.72;;;15.90;100.00
35806;BME280;21925;44.608;11.580;2022-10-13T01:17:39;102263.44;;;15.90;100.00
35806;BME280;21925;44.608;11.580;2022-10-13T01:23:11;102266.50;;;15.52;100.00
35806;BME280;21925;44.608;11.580;2022-10-13T01:26:01;102261.88;;;15.32;100.00
35806;BME280;21925;44.608;11.580;2022-10-13T01:29:13;102259.47;;;15.43;100.00
35806;BME280;21925;44.608;11.580;2022-10-13T01:31:36;102260.50;;;15.26;100.00
35806;BME280;21925;44.608;11.580;2022-10-13T01:37:28;102252.69;;;15.40;100.00
35806;BME280;21925;44.608;11.580;2022-10-13T01:40:03;102254.00;;;15.22;100.00
35806;BME280;21925;44.608;11.580;2022-10-13T01:42:51;102238.94;;;15.32;100.00
35806;BME280;21925;44.608;11.580;2022-10-13T01:45:21;102245.09;;;15.49;100.00
35806;BME280;21925;44.608;11.580;2022-10-13T01:47:50;102241.03;;;15.47;100.00
35806;BME280;21925;44.608;11.580;2022-10-13T01:50:17;102250.50;;;15.46;100.00
35806;BME280;21925;44.608;11.580;2022-10-13T01:52:43;102252.81;;;15.56;100.00
35806;BME280;21925;44.608;11.580;2022-10-13T01:55:11;102232.91;;;15.50;100.00
35806;BME280;21925;44.608;11.580;2022-10-13T01:57:42;102251.34;;;15.58;100.00
35806;BME280;21925;44.608;11.580;2022-10-13T02:00:12;102234.50;;;15.63;100.00
35806;BME280;21925;44.608;11.580;2022-10-13T02:11:18;102263.06;;;15.55;100.00
35806;BME280;21925;44.608;11.580;2022-10-13T02:14:02;102253.31;;;15.70;100.00
35806;BME280;21925;44.608;11.580;2022-10-13T02:16:35;102244.53;;;15.68;100.00
35806;BME280;21925;44.608;11.580;2022-10-13T02:19:04;102233.13;;;15.57;100.00
35806;BME280;21925;44.608;11.580;2022-10-13T02:21:31;102229.31;;;15.38;100.00
35806;BME280;21925;44.608;11.580;2022-10-13T02:24:02;102222.28;;;14.96;100.00
35806;BME280;21925;44.608;11.580;2022-10-13T02:26:29;102238.56;;;15.10;100.00
35806;BME280;21925;44.608;11.580;2022-10-13T02:29:00;102231.34;;;14.97;100.00
35806;BME280;21925;44.608;11.580;2022-10-13T02:31:31;102245.22;;;15.09;100.00
35806;BME280;21925;44.608;11.580;2022-10-13T02:33:57;102243.66;;;14.99;100.00
35806;BME280;21925;44.608;11.580;2022-10-13T02:36:23;102237.59;;;15.06;100.00
35806;BME280;21925;44.608;11.580;2022-10-13T02:38:48;102217.66;;;15.00;100.00
35806;BME280;21925;44.608;11.580;2022-10-13T02:41:14;102202.63;;;14.77;100.00
35806;BME280;21925;44.608;11.580;2022-10-13T02:43:39;102227.50;;;15.10;100.00
35806;BME280;21925;44.608;11.580;2022-10-13T02:46:05;102217.13;;;15.07;100.00
35806;BME280;21925;44.608;11.580;2022-10-13T02:48:31;102207.31;;;14.97;100.00
35806;BME280;21925;44.608;11.580;2022-10-13T02:50:56;102215.00;;;14.92;100.00
35806;BME280;21925;44.608;11.580;2022-10-13T02:53:22;102217.97;;;14.87;100.00
35806;BME280;21925;44.608;11.580;2022-10-13T02:55:48;102226.72;;;14.89;100.00
35806;BME280;21925;44.608;11.580;2022-10-13T02:58:13;102198.63;;;14.75;100.00
35806;BME280;21925;44.608;11.580;2022-10-13T03:00:39;102201.69;;;14.94;100.00
35806;BME280;21925;44.608;11.580;2022-10-13T03:03:05;102209.25;;;14.97;100.00
35806;BME280;21925;44.608;11.580;2022-10-13T03:05:31;102205.59;;;14.93;100.00
35806;BME280;21925;44.608;11.580;2022-10-13T03:07:57;102215.47;;;14.94;100.00
35806;BME280;21925;44.608;11.580;2022-10-13T03:10:22;102203.66;;;15.05;100.00
35806;BME280;21925;44.608;11.580;2022-10-13T03:12:50;102223.13;;;15.09;100.00
35806;BME280;21925;44.608;11.580;2022-10-13T03:15:16;102202.09;;;14.84;100.00
35806;BME280;21925;44.608;11.580;2022-10-13T03:17:41;102189.59;;;14.66;100.00
35806;BME280;21925;44.608;11.580;2022-10-13T03:20:08;102198.19;;;14.85;100.00
35806;BME280;21925;44.608;11.580;2022-10-13T03:22:33;102215.00;;;14.92;100.00
35806;BME280;21925;44.608;11.580;2022-10-13T03:24:59;102196.56;;;14.84;100.00
35806;BME280;21925;44.608;11.580;2022-10-13T03:27:25;102211.22;;;14.96;100.00
35806;BME280;21925;44.608;11.580;2022-10-13T03:29:50;102189.31;;;14.79;100.00
35806;BME280;21925;44.608;11.580;2022-10-13T03:32:16;102206.97;;;14.46;100.00
35806;BME280;21925;44.608;11.580;2022-10-13T03:34:41;102194.06;;;14.38;100.00
35806;BME280;21925;44.608;11.580;2022-10-13T03:37:07;102215.00;;;14.39;100.00
35806;BME280;21925;44.608;11.580;2022-10-13T03:39:39;102210.34;;;14.31;100.00
35806;BME280;21925;44.608;11.580;2022-10-13T03:42:07;102199.75;;;14.41;100.00
35806;BME280;21925;44.608;11.580;2022-10-13T03:44:33;102217.44;;;14.61;100.00
35806;BME280;21925;44.608;11.580;2022-10-13T03:46:59;102205.09;;;14.58;100.00
35806;BME280;21925;44.608;11.580;2022-10-13T03:49:25;102189.47;;;14.62;100.00
35806;BME280;21925;44.608;11.580;2022-10-13T03:51:50;102199.28;;;14.72;100.00
35806;BME280;21925;44.608;11.580;2022-10-13T03:54:16;102220.94;;;14.82;100.00
35806;BME280;21925;44.608;11.580;2022-10-13T03:56:45;102193.09;;;14.75;100.00
35806;BME280;21925;44.608;11.580;2022-10-13T03:59:12;102222.34;;;14.88;100.00
35806;BME280;21925;44.608;11.580;2022-10-13T04:01:38;102227.25;;;14.70;100.00
35806;BME280;21925;44.608;11.580;2022-10-13T04:04:04;102228.78;;;14.59;100.00
35806;BME280;21925;44.608;11.580;2022-10-13T04:06:30;102196.28;;;14.24;100.00
35806;BME280;21925;44.608;11.580;2022-10-13T04:08:56;102203.69;;;14.12;100.00
35806;BME280;21925;44.608;11.580;2022-10-13T04:11:22;102222.63;;;14.22;100.00
35806;BME280;21925;44.608;11.580;2022-10-13T04:13:55;102212.25;;;14.19;100.00
35806;BME280;21925;44.608;11.580;2022-10-13T04:16:23;102198.78;;;14.17;100.00
35806;BME280;21925;44.608;11.580;2022-10-13T04:18:55;102193.94;;;14.14;100.00
35806;BME280;21925;44.608;11.580;2022-10-13T04:21:22;102207.19;;;14.21;100.00
35806;BME280;21925;44.608;11.580;2022-10-13T04:23:48;102199.44;;;14.14;100.00
35806;BME280;21925;44.608;11.580;2022-10-13T04:26:19;102229.94;;;14.38;100.00
35806;BME280;21925;44.608;11.580;2022-10-13T04:28:46;102221.59;;;14.46;100.00
35806;BME280;21925;44.608;11.580;2022-10-13T04:31:12;102205.53;;;14.48;100.00
35806;BME280;21925;44.608;11.580;2022-10-13T04:33:38;102191.59;;;14.45;100.00
35806;BME280;21925;44.608;11.580;2022-10-13T04:36:08;102206.19;;;14.45;100.00
35806;BME280;21925;44.608;11.580;2022-10-13T04:38:35;102216.81;;;14.55;100.00
35806;BME280;21925;44.608;11.580;2022-10-13T04:41:02;102200.53;;;14.42;100.00
35806;BME280;21925;44.608;11.580;2022-10-13T04:43:28;102171.59;;;14.28;100.00
35806;BME280;21925;44.608;11.580;2022-10-13T04:46:08;102206.56;;;14.56;100.00
35806;BME280;21925;44.608;11.580;2022-10-13T04:48:34;102209.16;;;14.61;100.00
35806;BME280;21925;44.608;11.580;2022-10-13T04:51:02;102212.16;;;14.68;100.00
35806;BME280;21925;44.608;11.580;2022-10-13T04:53:29;102192.78;;;14.56;100.00
35806;BME280;21925;44.608;11.580;2022-10-13T04:55:58;102191.63;;;14.57;100.00
35806;BME280;21925;44.608;11.580;2022-10-13T04:58:24;102181.81;;;14.47;100.00
35806;BME280;21925;44.608;11.580;2022-10-13T05:00:50;102190.44;;;14.46;100.00
35806;BME280;21925;44.608;11.580;2022-10-13T05:03:16;102192.88;;;14.47;100.00
35806;BME280;21925;44.608;11.580;2022-10-13T05:05:42;102182.03;;;14.22;100.00
35806;BME280;21925;44.608;11.580;2022-10-13T05:08:07;102211.19;;;14.11;100.00
35806;BME280;21925;44.608;11.580;2022-10-13T05:10:33;102224.28;;;14.14;100.00
35806;BME280;21925;44.608;11.580;2022-10-13T05:12:59;102204.41;;;14.00;100.00
35806;BME280;21925;44.608;11.580;2022-10-13T05:15:25;102219.25;;;14.16;100.00
35806;BME280;21925;44.608;11.580;2022-10-13T05:17:50;102205.66;;;14.11;100.00
35806;BME280;21925;44.608;11.580;2022-10-13T05:20:16;102211.19;;;14.11;100.00
35806;BME280;21925;44.608;11.580;2022-10-13T05:22:42;102217.16;;;14.13;100.00
35806;BME280;21925;44.608;11.580;2022-10-13T05:25:08;102212.94;;;14.07;100.00
35806;BME280;21925;44.608;11.580;2022-10-13T05:27:34;102211.66;;;14.05;100.00
35806;BME280;21925;44.608;11.580;2022-10-13T05:30:03;102216.84;;;14.06;100.00
35806;BME280;21925;44.608;11.580;2022-10-13T05:32:29;102218.19;;;14.00;100.00
35806;BME280;21925;44.608;11.580;2022-10-13T05:34:55;102210.31;;;13.61;100.00
35806;BME280;21925;44.608;11.580;2022-10-13T05:37:20;102195.63;;;13.49;100.00
35806;BME280;21925;44.608;11.580;2022-10-13T05:39:47;102205.50;;;13.50;100.00
35806;BME280;21925;44.608;11.580;2022-10-13T05:42:13;102236.22;;;13.69;100.00
35806;BME280;21925;44.608;11.580;2022-10-13T05:44:39;102223.25;;;13.69;100.00
35806;BME280;21925;44.608;11.580;2022-10-13T05:47:04;102227.63;;;13.70;100.00
35806;BME280;21925;44.608;11.580;2022-10-13T05:49:30;102204.31;;;13.59;100.00
35806;BME280;21925;44.608;11.580;2022-10-13T05:52:00;102191.66;;;13.58;100.00
35806;BME280;21925;44.608;11.580;2022-10-13T05:54:28;102229.16;;;13.88;100.00
35806;BME280;21925;44.608;11.580;2022-10-13T05:57:00;102230.72;;;13.89;100.00
35806;BME280;21925;44.608;11.580;2022-10-13T05:59:29;102213.41;;;13.89;100.00
35806;BME280;21925;44.608;11.580;2022-10-13T06:01:57;102211.22;;;13.74;100.00
35806;BME280;21925;44.608;11.580;2022-10-13T06:04:33;102226.25;;;13.85;100.00
35806;BME280;21925;44.608;11.580;2022-10-13T06:07:00;102185.78;;;13.68;100.00
35806;BME280;21925;44.608;11.580;2022-10-13T06:09:30;102215.50;;;13.92;100.00
35806;BME280;21925;44.608;11.580;2022-10-13T06:11:58;102224.19;;;14.02;100.00
35806;BME280;21925;44.608;11.580;2022-10-13T06:14:24;102211.06;;;13.99;100.00
35806;BME280;21925;44.608;11.580;2022-10-13T06:16:50;102213.38;;;14.18;100.00
35806;BME280;21925;44.608;11.580;2022-10-13T06:19:16;102162.25;;;14.00;100.00
35806;BME280;21925;44.608;11.580;2022-10-13T06:21:42;102171.06;;;14.14;100.00
35806;BME280;21925;44.608;11.580;2022-10-13T06:24:08;102196.66;;;14.23;100.00
35806;BME280;21925;44.608;11.580;2022-10-13T06:26:33;102195.91;;;14.34;100.00
35806;BME280;21925;44.608;11.580;2022-10-13T06:28:59;102211.31;;;14.55;100.00
35806;BME280;21925;44.608;11.580;2022-10-13T06:31:25;102192.16;;;14.50;100.00
35806;BME280;21925;44.608;11.580;2022-10-13T06:33:51;102198.84;;;14.70;100.00
35806;BME280;21925;44.608;11.580;2022-10-13T06:36:17;102192.41;;;14.78;100.00
35806;BME280;21925;44.608;11.580;2022-10-13T06:38:42;102186.44;;;14.88;100.00
35806;BME280;21925;44.608;11.580;2022-10-13T06:41:08;102195.56;;;14.88;100.00
35806;BME280;21925;44.608;11.580;2022-10-13T06:43:34;102165.22;;;14.68;100.00
35806;BME280;21925;44.608;11.580;2022-10-13T06:46:01;102174.47;;;14.84;100.00
35806;BME280;21925;44.608;11.580;2022-10-13T06:48:27;102194.78;;;15.00;100.00
35806;BME280;21925;44.608;11.580;2022-10-13T06:50:52;102166.91;;;14.93;100.00
35806;BME280;21925;44.608;11.580;2022-10-13T06:53:18;102197.75;;;15.27;100.00
35806;BME280;21925;44.608;11.580;2022-10-13T06:55:44;102198.31;;;15.32;100.00
35806;BME280;21925;44.608;11.580;2022-10-13T06:58:10;102205.81;;;15.44;100.00
35806;BME280;21925;44.608;11.580;2022-10-13T07:00:36;102189.09;;;15.52;100.00
35806;BME280;21925;44.608;11.580;2022-10-13T07:03:04;102200.63;;;15.54;100.00
35806;BME280;21925;44.608;11.580;2022-10-13T07:05:30;102215.72;;;15.81;100.00
35806;BME280;21925;44.608;11.580;2022-10-13T07:07:56;102197.19;;;15.81;100.00
35806;BME280;21925;44.608;11.580;2022-10-13T07:10:22;102175.50;;;15.83;100.00
35806;BME280;21925;44.608;11.580;2022-10-13T07:12:47;102205.31;;;16.13;100.00
35806;BME280;21925;44.608;11.580;2022-10-13T07:15:13;102208.66;;;16.31;100.00
35806;BME280;21925;44.608;11.580;2022-10-13T07:17:39;102161.38;;;16.12;100.00
35806;BME280;21925;44.608;11.580;2022-10-13T07:20:05;102227.44;;;16.65;100.00
35806;BME280;21925;44.608;11.580;2022-10-13T07:22:32;102223.88;;;16.64;100.00
35806;BME280;21925;44.608;11.580;2022-10-13T07:24:57;102187.50;;;16.38;100.00
35806;BME280;21925;44.608;11.580;2022-10-13T07:27:23;102211.28;;;16.67;100.00
35806;BME280;21925;44.608;11.580;2022-10-13T07:29:49;102210.38;;;16.90;100.00
35806;BME280;21925;44.608;11.580;2022-10-13T07:32:15;102212.63;;;17.00;100.00
35806;BME280;21925;44.608;11.580;2022-10-13T07:34:41;102201.78;;;16.95;100.00
35806;BME280;21925;44.608;11.580;2022-10-13T07:37:07;102215.75;;;16.98;100.00
35806;BME280;21925;44.608;11.580;2022-10-13T07:39:32;102214.59;;;16.99;100.00
35806;BME280;21925;44.608;11.580;2022-10-13T07:41:58;102202.81;;;17.02;100.00
35806;BME280;21925;44.608;11.580;2022-10-13T07:44:24;102202.19;;;17.24;100.00
35806;BME280;21925;44.608;11.580;2022-10-13T07:46:50;102221.03;;;17.31;100.00
35806;BME280;21925;44.608;11.580;2022-10-13T07:49:15;102205.91;;;17.44;100.00
35806;BME280;21925;44.608;11.580;2022-10-13T07:51:42;102211.38;;;17.56;100.00
35806;BME280;21925;44.608;11.580;2022-10-13T07:54:09;102226.13;;;17.75;100.00
35806;BME280;21925;44.608;11.580;2022-10-13T07:56:36;102225.28;;;17.90;100.00
35806;BME280;21925;44.608;11.580;2022-10-13T07:59:03;102222.03;;;18.03;100.00
35806;BME280;21925;44.608;11.580;2022-10-13T08:01:30;102230.28;;;18.00;100.00
35806;BME280;21925;44.608;11.580;2022-10-13T08:03:56;102214.19;;;17.90;100.00
35806;BME280;21925;44.608;11.580;2022-10-13T08:06:22;102217.09;;;18.12;100.00
35806;BME280;21925;44.608;11.580;2022-10-13T08:08:52;102215.03;;;18.25;100.00
35806;BME280;21925;44.608;11.580;2022-10-13T08:11:19;102221.91;;;18.31;100.00
35806;BME280;21925;44.608;11.580;2022-10-13T08:13:46;102200.94;;;18.52;100.00
35806;BME280;21925;44.608;11.580;2022-10-13T08:16:15;102190.78;;;18.41;100.00
35806;BME280;21925;44.608;11.580;2022-10-13T08:18:41;102209.19;;;18.67;100.00
35806;BME280;21925;44.608;11.580;2022-10-13T08:21:12;102211.00;;;18.79;100.00
35806;BME280;21925;44.608;11.580;2022-10-13T08:23:40;102201.88;;;18.78;100.00
35806;BME280;21925;44.608;11.580;2022-10-13T08:26:13;102181.44;;;18.90;100.00
35806;BME280;21925;44.608;11.580;2022-10-13T08:28:49;102209.38;;;19.16;100.00
35806;BME280;21925;44.608;11.580;2022-10-13T08:31:15;102201.78;;;19.35;100.00
35806;BME280;21925;44.608;11.580;2022-10-13T08:33:41;102202.22;;;19.37;100.00
35806;BME280;21925;44.608;11.580;2022-10-13T08:36:15;102207.28;;;19.54;100.00
35806;BME280;21925;44.608;11.580;2022-10-13T08:38:42;102190.94;;;19.52;100.00
35806;BME280;21925;44.608;11.580;2022-10-13T08:41:38;102209.00;;;19.88;100.00
35806;BME280;21925;44.608;11.580;2022-10-13T08:44:24;102192.19;;;19.81;100.00
35806;BME280;21925;44.608;11.580;2022-10-13T08:49:37;102190.41;;;20.17;100.00
35806;BME280;21925;44.608;11.580;2022-10-13T08:52:04;102204.09;;;20.29;100.00
35806;BME280;21925;44.608;11.580;2022-10-13T08:54:31;102198.06;;;20.57;100.00
35806;BME280;21925;44.608;11.580;2022-10-13T08:56:57;102200.63;;;20.69;100.00
35806;BME280;21925;44.608;11.580;2022-10-13T08:59:23;102184.53;;;20.55;100.00
35806;BME280;21925;44.608;11.580;2022-10-13T09:01:52;102165.41;;;20.54;100.00
35806;BME280;21925;44.608;11.580;2022-10-13T09:07:04;102185.97;;;21.08;100.00
35806;BME280;21925;44.608;11.580;2022-10-13T09:09:31;102195.28;;;21.26;98.96
35806;BME280;21925;44.608;11.580;2022-10-13T09:11:58;102192.50;;;21.26;98.00
35806;BME280;21925;44.608;11.580;2022-10-13T09:14:36;102184.53;;;21.24;98.13
35806;BME280;21925;44.608;11.580;2022-10-13T09:17:23;102197.56;;;21.13;98.54
35806;BME280;21925;44.608;11.580;2022-10-13T09:22:36;102191.84;;;21.43;97.24
35806;BME280;21925;44.608;11.580;2022-10-13T09:27:45;102189.75;;;21.72;93.66
35806;BME280;21925;44.608;11.580;2022-10-13T09:30:33;102193.09;;;21.92;92.58
35806;BME280;21925;44.608;11.580;2022-10-13T09:38:03;102185.53;;;21.99;88.59
35806;BME280;21925;44.608;11.580;2022-10-13T09:40:29;102170.81;;;22.02;88.92
35806;BME280;21925;44.608;11.580;2022-10-13T09:43:00;102184.44;;;22.14;86.61
35806;BME280;21925;44.608;11.580;2022-10-13T09:45:26;102164.34;;;21.91;86.25
35806;BME280;21925;44.608;11.580;2022-10-13T09:48:03;102178.63;;;22.47;84.29
35806;BME280;21925;44.608;11.580;2022-10-13T09:50:31;102175.03;;;22.43;81.37
35806;BME280;21925;44.608;11.580;2022-10-13T09:55:47;102170.72;;;22.63;79.91
35806;BME280;21925;44.608;11.580;2022-10-13T09:58:27;102168.03;;;22.98;79.62
35806;BME280;21925;44.608;11.580;2022-10-13T10:00:54;102163.28;;;23.19;79.21
35806;BME280;21925;44.608;11.580;2022-10-13T10:03:28;102149.69;;;23.18;75.65
35806;BME280;21925;44.608;11.580;2022-10-13T10:05:59;102162.50;;;23.33;76.67
35806;BME280;21925;44.608;11.580;2022-10-13T10:08:35;102152.91;;;23.51;77.03
35806;BME280;21925;44.608;11.580;2022-10-13T10:11:16;102158.50;;;23.44;73.04
35806;BME280;21925;44.608;11.580;2022-10-13T10:13:43;102132.50;;;23.75;71.89
35806;BME280;21925;44.608;11.580;2022-10-13T10:16:18;102155.19;;;24.12;68.42
35806;BME280;21925;44.608;11.580;2022-10-13T10:19:02;102152.84;;;24.00;66.37
35806;BME280;21925;44.608;11.580;2022-10-13T10:21:51;102126.38;;;24.11;67.68
35806;BME280;21925;44.608;11.580;2022-10-13T10:27:11;102153.56;;;24.28;66.37
35806;BME280;21925;44.608;11.580;2022-10-13T10:29:52;102151.91;;;24.48;63.85
35806;BME280;21925;44.608;11.580;2022-10-13T10:32:42;102149.44;;;24.57;63.40
35806;BME280;21925;44.608;11.580;2022-10-13T10:38:38;102133.16;;;25.02;64.60
35806;BME280;21925;44.608;11.580;2022-10-13T10:41:15;102125.31;;;24.77;65.04
35806;BME280;21925;44.608;11.580;2022-10-13T10:46:39;102129.06;;;24.53;61.34
35806;BME280;21925;44.608;11.580;2022-10-13T10:49:17;102126.53;;;24.72;59.98
35806;BME280;21925;44.608;11.580;2022-10-13T10:51:44;102096.13;;;24.60;57.91
35806;BME280;21925;44.608;11.580;2022-10-13T10:54:32;102110.56;;;24.59;60.78
35806;BME280;21925;44.608;11.580;2022-10-13T10:57:07;102106.16;;;25.66;66.65
35806;BME280;21925;44.608;11.580;2022-10-13T11:02:13;102099.66;;;25.32;59.72
35806;BME280;21925;44.608;11.580;2022-10-13T11:04:43;102088.16;;;25.60;60.02
35806;BME280;21925;44.608;11.580;2022-10-13T11:17:30;102054.13;;;25.88;56.33
35806;BME280;21925;44.608;11.580;2022-10-13T11:19:56;102058.31;;;26.06;56.07
35806;BME280;21925;44.608;11.580;2022-10-13T11:22:31;102049.94;;;26.33;57.39
35806;BME280;21925;44.608;11.580;2022-10-13T11:30:56;102040.03;;;26.77;55.11
35806;BME280;21925;44.608;11.580;2022-10-13T11:36:37;102031.63;;;27.23;55.83
35806;BME280;21925;44.608;11.580;2022-10-13T11:53:42;102019.03;;;27.08;54.40
35806;BME280;21925;44.608;11.580;2022-10-13T11:59:19;102014.56;;;26.35;53.71
35806;BME280;21925;44.608;11.580;2022-10-13T12:01:44;102004.88;;;26.40;54.16
35806;BME280;21925;44.608;11.580;2022-10-13T12:04:14;102010.16;;;26.61;53.27
35806;BME280;21925;44.608;11.580;2022-10-13T12:06:40;102009.34;;;26.86;53.99
35806;BME280;21925;44.608;11.580;2022-10-13T12:09:15;102014.09;;;27.16;53.91
35806;BME280;21925;44.608;11.580;2022-10-13T12:11:42;102007.25;;;26.90;53.13
35806;BME280;21925;44.608;11.580;2022-10-13T12:14:20;102002.53;;;27.10;54.45
35806;BME280;21925;44.608;11.580;2022-10-13T12:16:56;101995.38;;;26.57;53.61
35806;BME280;21925;44.608;11.580;2022-10-13T12:19:24;101995.59;;;26.13;53.89
35806;BME280;21925;44.608;11.580;2022-10-13T12:21:53;101989.75;;;26.57;54.18
35806;BME280;21925;44.608;11.580;2022-10-13T12:24:24;101964.72;;;26.36;53.21
35806;BME280;21925;44.608;11.580;2022-10-13T12:26:51;101975.19;;;26.62;55.08
35806;BME280;21925;44.608;11.580;2022-10-13T12:29:22;101970.88;;;26.54;54.63
35806;BME280;21925;44.608;11.580;2022-10-13T12:31:49;101961.63;;;26.27;54.94
35806;BME280;21925;44.608;11.580;2022-10-13T12:39:28;101949.28;;;26.47;54.55
35806;BME280;21925;44.608;11.580;2022-10-13T12:41:55;101951.16;;;26.80;54.98
35806;BME280;21925;44.608;11.580;2022-10-13T12:44:27;101953.72;;;26.71;52.68
35806;BME280;21925;44.608;11.580;2022-10-13T12:46:56;101952.66;;;26.39;53.99
35806;BME280;21925;44.608;11.580;2022-10-13T12:49:27;101962.38;;;26.31;52.92
35806;BME280;21925;44.608;11.580;2022-10-13T12:52:04;101949.59;;;26.26;54.00
35806;BME280;21925;44.608;11.580;2022-10-13T12:54:33;101956.19;;;26.43;52.06
35806;BME280;21925;44.608;11.580;2022-10-13T12:57:03;101948.06;;;26.22;51.14
35806;BME280;21925;44.608;11.580;2022-10-13T12:59:29;101943.22;;;26.22;51.43
35806;BME280;21925;44.608;11.580;2022-10-13T13:02:12;101955.88;;;26.34;51.70
35806;BME280;21925;44.608;11.580;2022-10-13T13:04:43;101955.84;;;26.37;53.03
35806;BME280;21925;44.608;11.580;2022-10-13T13:07:28;101950.88;;;26.48;54.58
35806;BME280;21925;44.608;11.580;2022-10-13T13:10:15;101952.94;;;26.70;53.18
35806;BME280;21925;44.608;11.580;2022-10-13T13:12:42;101942.50;;;26.67;53.40
35806;BME280;21925;44.608;11.580;2022-10-13T13:17:52;101950.94;;;26.90;54.68
35806;BME280;21925;44.608;11.580;2022-10-13T13:20:28;101957.22;;;27.01;54.64
35806;BME280;21925;44.608;11.580;2022-10-13T13:22:55;101954.13;;;26.92;53.50
35806;BME280;21925;44.608;11.580;2022-10-13T13:25:21;101953.47;;;26.85;51.97
35806;BME280;21925;44.608;11.580;2022-10-13T13:27:47;101956.81;;;26.27;52.19
35806;BME280;21925;44.608;11.580;2022-10-13T13:30:17;101945.25;;;26.22;53.29
35806;BME280;21925;44.608;11.580;2022-10-13T13:32:43;101933.56;;;26.23;53.57
35806;BME280;21925;44.608;11.580;2022-10-13T13:35:09;101940.91;;;26.17;55.11
35806;BME280;21925;44.608;11.580;2022-10-13T13:37:42;101947.31;;;26.18;54.98
35806;BME280;21925;44.608;11.580;2022-10-13T13:40:29;101945.91;;;26.29;53.50
35806;BME280;21925;44.608;11.580;2022-10-13T13:42:55;101917.69;;;26.10;54.76
35806;BME280;21925;44.608;11.580;2022-10-13T13:45:25;101919.13;;;25.65;53.31
35806;BME280;21925;44.608;11.580;2022-10-13T13:47:52;101933.28;;;25.88;54.78
35806;BME280;21925;44.608;11.580;2022-10-13T13:50:24;101923.38;;;25.80;53.37
35806;BME280;21925;44.608;11.580;2022-10-13T13:52:57;101916.91;;;25.83;53.27
35806;BME280;21925;44.608;11.580;2022-10-13T13:55:23;101908.75;;;25.92;54.11
35806;BME280;21925;44.608;11.580;2022-10-13T13:57:49;101931.28;;;26.15;53.72
35806;BME280;21925;44.608;11.580;2022-10-13T14:00:16;101934.09;;;26.15;53.51
35806;BME280;21925;44.608;11.580;2022-10-13T14:02:46;101930.53;;;26.11;55.78
35806;BME280;21925;44.608;11.580;2022-10-13T14:05:11;101927.72;;;26.11;55.02
35806;BME280;21925;44.608;11.580;2022-10-13T14:07:38;101902.81;;;25.86;53.41
35806;BME280;21925;44.608;11.580;2022-10-13T14:10:05;101914.94;;;26.06;53.46
35806;BME280;21925;44.608;11.580;2022-10-13T14:12:31;101913.50;;;26.21;53.74
35806;BME280;21925;44.608;11.580;2022-10-13T14:14:57;101915.69;;;26.37;54.44